createdAt,value
2023-05-09T00:02:24.778Z,7.01
2023-05-09T00:04:51.266Z,6.98
2023-05-09T00:07:17.651Z,6.95
2023-05-09T00:09:44.009Z,6.92
2023-05-09T00:12:11.634Z,6.89
2023-05-09T00:14:39.906Z,6.85
2023-05-09T00:17:07.181Z,6.82
2023-05-09T00:19:33.465Z,6.79
2023-05-09T00:21:59.785Z,6.77
2023-05-09T00:24:26.215Z,6.73
2023-05-09T00:26:52.569Z,6.70
2023-05-09T00:29:19.103Z,6.66
2023-05-09T00:31:45.422Z,6.64
2023-05-09T00:34:11.720Z,6.60
2023-05-09T00:36:38.018Z,6.56
2023-05-09T00:39:04.839Z,6.53
2023-05-09T00:41:31.169Z,6.51
2023-05-09T00:43:57.436Z,6.48
2023-05-09T00:46:23.877Z,6.44
2023-05-09T00:48:51.673Z,6.41
2023-05-09T00:51:22.500Z,6.37
2023-05-09T00:53:49.895Z,6.36
2023-05-09T00:56:16.426Z,6.34
2023-05-09T00:58:43.296Z,6.32
2023-05-09T01:01:09.868Z,6.30
2023-05-09T01:03:41.689Z,6.28
2023-05-09T01:06:20.442Z,6.25
2023-05-09T01:08:58.943Z,6.21
2023-05-09T01:11:41.091Z,6.19
2023-05-09T01:14:26.042Z,6.15
2023-05-09T01:17:13.984Z,6.12
2023-05-09T01:19:58.113Z,6.09
2023-05-09T01:22:31.289Z,6.06
2023-05-09T01:25:10.056Z,6.04
2023-05-09T01:27:56.897Z,6.02
2023-05-09T01:30:25.286Z,5.99
2023-05-09T01:32:55.770Z,5.96
2023-05-09T01:35:25.717Z,5.94
2023-05-09T01:37:54.147Z,5.91
2023-05-09T01:40:22.548Z,5.91
2023-05-09T01:42:57.678Z,5.89
2023-05-09T01:45:26.305Z,5.87
2023-05-09T01:47:53.376Z,5.85
2023-05-09T01:50:21.859Z,5.83
2023-05-09T01:52:51.485Z,5.80
2023-05-09T01:55:19.330Z,5.79
2023-05-09T01:57:49.604Z,5.76
2023-05-09T02:00:19.352Z,5.75
2023-05-09T02:02:46.052Z,5.73
2023-05-09T02:05:14.992Z,5.71
2023-05-09T02:07:42.281Z,5.68
2023-05-09T02:10:09.605Z,5.66
2023-05-09T02:12:37.710Z,5.64
2023-05-09T02:15:05.349Z,5.61
2023-05-09T02:17:32.163Z,5.59
2023-05-09T02:20:04.509Z,5.55
2023-05-09T02:22:30.829Z,5.53
2023-05-09T02:25:00.085Z,5.51
2023-05-09T02:27:27.153Z,5.49
2023-05-09T02:29:57.670Z,5.46
2023-05-09T02:32:27.991Z,5.43
2023-05-09T02:34:55.493Z,5.41
2023-05-09T02:37:22.870Z,5.39
2023-05-09T02:39:49.264Z,5.36
2023-05-09T02:42:24.487Z,5.33
2023-05-09T02:44:51.657Z,5.31
2023-05-09T02:47:17.960Z,5.28
2023-05-09T02:49:44.303Z,5.26
2023-05-09T02:52:11.218Z,5.24
2023-05-09T02:54:37.940Z,5.21
2023-05-09T02:57:04.713Z,5.18
2023-05-09T02:59:31.403Z,5.16
2023-05-09T03:02:00.393Z,5.13
2023-05-09T03:04:26.874Z,5.10
2023-05-09T03:06:53.148Z,5.08
2023-05-09T03:09:19.705Z,5.06
2023-05-09T03:11:46.014Z,5.03
2023-05-09T03:14:14.145Z,5.01
2023-05-09T03:16:40.622Z,4.99
2023-05-09T03:19:11.628Z,4.97
2023-05-09T03:21:38.769Z,4.96
2023-05-09T03:24:06.913Z,4.95
2023-05-09T03:26:35.029Z,4.96
2023-05-09T03:29:02.181Z,4.95
2023-05-09T03:31:28.514Z,4.95
2023-05-09T03:33:54.867Z,4.96
2023-05-09T03:36:22.480Z,4.95
2023-05-09T03:38:49.021Z,4.96
2023-05-09T03:41:16.565Z,4.96
2023-05-09T03:43:43.537Z,4.95
2023-05-09T03:46:09.862Z,4.96
2023-05-09T03:48:36.400Z,4.97
2023-05-09T03:51:02.885Z,4.98
2023-05-09T03:53:29.575Z,5.00
2023-05-09T03:55:56.008Z,5.02
2023-05-09T03:58:22.431Z,5.04
2023-05-09T04:00:48.932Z,5.06
2023-05-09T04:03:31.352Z,5.09
2023-05-09T04:05:57.960Z,5.12
2023-05-09T04:08:29.120Z,5.15
2023-05-09T04:10:55.490Z,5.18
2023-05-09T04:13:22.218Z,5.22
2023-05-09T04:15:48.941Z,5.26
2023-05-09T04:18:15.358Z,5.30
2023-05-09T04:20:41.658Z,5.34
2023-05-09T04:23:08.308Z,5.40
2023-05-09T04:25:34.836Z,5.45
2023-05-09T04:28:01.642Z,5.50
2023-05-09T04:30:28.434Z,5.56
2023-05-09T04:32:55.421Z,5.62
2023-05-09T04:35:22.578Z,5.69
2023-05-09T04:37:50.720Z,5.76
2023-05-09T04:40:17.242Z,5.85
2023-05-09T04:42:49.144Z,5.93
2023-05-09T04:45:16.660Z,6.01
2023-05-09T04:47:43.524Z,6.10
2023-05-09T04:50:10.413Z,6.20
2023-05-09T04:52:36.717Z,6.31
2023-05-09T04:55:03.177Z,6.42
2023-05-09T04:57:32.769Z,6.53
2023-05-09T04:59:59.030Z,6.64
2023-05-09T05:02:25.592Z,6.75
2023-05-09T05:04:56.110Z,6.86
2023-05-09T05:07:26.778Z,6.99
2023-05-09T05:09:53.606Z,7.13
2023-05-09T05:12:20.133Z,7.26
2023-05-09T05:14:46.765Z,7.39
2023-05-09T05:17:17.507Z,7.54
2023-05-09T05:19:44.314Z,7.70
2023-05-09T05:22:11.143Z,7.86
2023-05-09T05:24:38.860Z,8.02
2023-05-09T05:27:05.242Z,8.17
2023-05-09T05:29:31.902Z,8.34
2023-05-09T05:32:00.844Z,8.51
2023-05-09T05:34:27.411Z,8.69
2023-05-09T05:36:53.906Z,8.87
2023-05-09T05:39:20.607Z,9.06
2023-05-09T05:41:47.804Z,9.24
2023-05-09T05:44:14.783Z,9.43
2023-05-09T05:46:41.491Z,9.62
2023-05-09T05:49:08.006Z,9.80
2023-05-09T05:51:37.764Z,10.00
2023-05-09T05:54:04.953Z,10.18
2023-05-09T05:56:31.696Z,10.37
2023-05-09T05:58:58.196Z,10.57
2023-05-09T06:01:24.608Z,10.76
2023-05-09T06:03:54.112Z,10.97
2023-05-09T06:06:21.583Z,11.18
2023-05-09T06:08:49.340Z,11.38
2023-05-09T06:11:16.266Z,11.57
2023-05-09T06:13:42.990Z,11.76
2023-05-09T06:16:19.556Z,11.96
2023-05-09T06:18:48.884Z,12.16
2023-05-09T06:21:15.409Z,12.34
2023-05-09T06:23:57.143Z,12.52
2023-05-09T06:26:28.905Z,12.73
2023-05-09T06:28:55.701Z,12.91
2023-05-09T06:31:23.536Z,13.10
2023-05-09T06:33:52.586Z,13.29
2023-05-09T06:36:22.370Z,13.49
2023-05-09T06:38:51.459Z,13.68
2023-05-09T06:41:17.975Z,13.88
2023-05-09T06:43:44.959Z,14.07
2023-05-09T06:46:11.513Z,14.27
2023-05-09T06:48:38.095Z,14.46
2023-05-09T06:51:04.998Z,14.64
2023-05-09T06:53:31.792Z,14.80
2023-05-09T06:56:00.495Z,14.97
2023-05-09T06:58:27.848Z,15.16
2023-05-09T07:00:55.476Z,15.33
2023-05-09T07:03:22.667Z,15.51
2023-05-09T07:05:51.814Z,15.72
2023-05-09T07:08:18.464Z,15.89
2023-05-09T07:10:45.147Z,16.06
2023-05-09T07:13:11.784Z,16.24
2023-05-09T07:15:41.854Z,16.39
2023-05-09T07:18:09.429Z,16.56
2023-05-09T07:20:36.448Z,16.71
2023-05-09T07:23:03.721Z,16.86
2023-05-09T07:25:30.205Z,17.01
2023-05-09T07:27:56.875Z,17.17
2023-05-09T07:30:23.518Z,17.32
2023-05-09T07:32:51.123Z,17.46
2023-05-09T07:35:19.160Z,17.63
2023-05-09T07:37:45.724Z,17.79
2023-05-09T07:40:12.784Z,17.96
2023-05-09T07:42:39.483Z,18.10
2023-05-09T07:45:06.738Z,18.26
2023-05-09T07:47:33.215Z,18.42
2023-05-09T07:49:59.755Z,18.53
2023-05-09T07:52:26.212Z,18.64
2023-05-09T07:54:53.836Z,18.76
2023-05-09T07:57:20.167Z,18.88
2023-05-09T07:59:48.850Z,19.02
2023-05-09T08:02:15.433Z,19.19
2023-05-09T08:04:47.973Z,19.34
2023-05-09T08:07:14.504Z,19.47
2023-05-09T08:09:41.209Z,19.57
2023-05-09T08:12:07.740Z,19.72
2023-05-09T08:14:34.263Z,19.89
2023-05-09T08:17:00.815Z,20.02
2023-05-09T08:19:27.248Z,20.13
2023-05-09T08:21:53.736Z,20.26
2023-05-09T08:24:20.503Z,20.39
2023-05-09T08:26:49.825Z,20.50
2023-05-09T08:29:18.999Z,20.64
2023-05-09T08:31:53.320Z,20.75
2023-05-09T08:34:20.607Z,20.82
2023-05-09T08:36:49.494Z,20.96
2023-05-09T08:39:16.067Z,21.05
2023-05-09T08:42:08.293Z,21.13
2023-05-09T08:44:40.015Z,21.25
2023-05-09T08:47:07.295Z,21.31
2023-05-09T08:49:35.047Z,21.37
2023-05-09T08:52:02.071Z,21.43
2023-05-09T08:54:32.050Z,21.50
2023-05-09T08:57:00.461Z,21.61
2023-05-09T08:59:28.150Z,21.72
2023-05-09T09:01:55.107Z,21.83
2023-05-09T09:04:21.679Z,21.96
2023-05-09T09:06:48.264Z,22.04
2023-05-09T09:09:16.521Z,22.12
2023-05-09T09:11:43.873Z,22.18
2023-05-09T09:14:22.951Z,22.25
2023-05-09T09:16:51.118Z,22.32
2023-05-09T09:19:19.618Z,22.35
2023-05-09T09:21:46.909Z,22.38
2023-05-09T09:24:14.190Z,22.45
2023-05-09T09:26:47.278Z,22.49
2023-05-09T09:29:14.548Z,22.53
2023-05-09T09:31:44.600Z,22.58
2023-05-09T09:34:13.577Z,22.62
2023-05-09T09:36:40.515Z,22.62
2023-05-09T09:39:08.508Z,22.61
2023-05-09T09:41:39.120Z,22.59
2023-05-09T09:44:10.164Z,22.60
2023-05-09T09:46:45.950Z,22.59
2023-05-09T09:49:14.095Z,22.54
2023-05-09T09:51:41.091Z,22.50
2023-05-09T09:54:09.518Z,22.47
2023-05-09T09:56:44.327Z,22.45
2023-05-09T09:59:15.938Z,22.42
2023-05-09T10:02:06.683Z,22.39
2023-05-09T10:04:36.404Z,22.39
2023-05-09T10:07:05.515Z,22.35
2023-05-09T10:09:33.785Z,22.32
2023-05-09T10:12:06.106Z,22.30
2023-05-09T10:14:35.574Z,22.29
2023-05-09T10:17:04.419Z,22.28
2023-05-09T10:19:34.032Z,22.25
2023-05-09T10:22:07.484Z,22.20
2023-05-09T10:24:39.759Z,22.15
2023-05-09T10:27:11.068Z,22.11
2023-05-09T10:29:44.895Z,22.09
2023-05-09T10:32:18.672Z,22.06
2023-05-09T10:34:48.688Z,22.05
2023-05-09T10:37:15.449Z,22.04
2023-05-09T10:39:43.299Z,22.03
2023-05-09T10:42:10.394Z,21.99
2023-05-09T10:44:36.957Z,21.94
2023-05-09T10:47:03.836Z,21.91
2023-05-09T10:49:31.344Z,21.87
2023-05-09T10:51:57.773Z,21.83
2023-05-09T10:54:30.859Z,21.79
2023-05-09T10:56:57.641Z,21.77
2023-05-09T10:59:37.692Z,21.75
2023-05-09T11:02:04.963Z,21.73
2023-05-09T11:04:31.958Z,21.72
2023-05-09T11:06:59.745Z,21.74
2023-05-09T11:09:38.371Z,21.76
2023-05-09T11:12:04.845Z,21.76
2023-05-09T11:14:38.885Z,21.78
2023-05-09T11:17:07.753Z,21.77
2023-05-09T11:19:46.538Z,21.78
2023-05-09T11:22:15.288Z,21.80
2023-05-09T11:24:46.727Z,21.81
2023-05-09T11:27:19.633Z,21.81
2023-05-09T11:29:51.467Z,21.84
2023-05-09T11:32:19.222Z,21.86
2023-05-09T11:34:46.602Z,21.90
2023-05-09T11:37:16.081Z,21.95
2023-05-09T11:40:00.189Z,22.03
2023-05-09T11:42:31.167Z,22.12
2023-05-09T11:44:58.446Z,22.20
2023-05-09T11:47:25.866Z,22.26
2023-05-09T11:49:52.357Z,22.32
2023-05-09T11:52:20.162Z,22.38
2023-05-09T11:54:46.939Z,22.43
2023-05-09T11:57:16.742Z,22.50
2023-05-09T11:59:44.816Z,22.55
2023-05-09T12:02:12.522Z,22.61
2023-05-09T12:04:45.794Z,22.69
2023-05-09T12:12:56.327Z,23.03
2023-05-09T12:15:23.202Z,23.11
2023-05-09T12:18:04.394Z,23.18
2023-05-09T12:20:46.865Z,23.28
2023-05-09T12:23:14.790Z,23.34
2023-05-09T12:25:52.059Z,23.42
2023-05-09T12:28:21.849Z,23.52
2023-05-09T12:30:49.228Z,23.61
2023-05-09T12:33:16.094Z,23.71
2023-05-09T12:35:47.190Z,23.79
2023-05-09T12:38:20.015Z,23.87
2023-05-09T12:41:02.170Z,23.93
2023-05-09T12:43:34.609Z,23.96
2023-05-09T12:46:02.222Z,24.01
2023-05-09T12:48:33.848Z,24.05
2023-05-09T12:51:07.420Z,24.09
2023-05-09T12:53:38.782Z,24.17
2023-05-09T12:56:13.070Z,24.24
2023-05-09T12:58:39.471Z,24.32
2023-05-09T13:01:06.066Z,24.35
2023-05-09T13:03:37.248Z,24.36
2023-05-09T13:06:05.877Z,24.36
2023-05-09T13:08:35.228Z,24.36
2023-05-09T13:11:15.028Z,24.34
2023-05-09T13:13:42.832Z,24.30
2023-05-09T13:16:10.994Z,24.28
2023-05-09T13:18:38.595Z,24.25
2023-05-09T13:21:04.999Z,24.23
2023-05-09T13:23:31.399Z,24.23
2023-05-09T13:25:57.708Z,24.24
2023-05-09T13:28:24.132Z,24.27
2023-05-09T13:30:50.575Z,24.27
2023-05-09T13:33:25.768Z,24.24
2023-05-09T13:35:53.223Z,24.18
2023-05-09T13:38:19.674Z,24.12
2023-05-09T13:40:45.970Z,24.04
2023-05-09T13:43:12.346Z,23.95
2023-05-09T13:45:38.858Z,23.86
2023-05-09T13:48:05.763Z,23.79
2023-05-09T13:50:33.494Z,23.69
2023-05-09T13:52:59.787Z,23.57
2023-05-09T13:55:26.864Z,23.45
2023-05-09T13:57:53.264Z,23.35
2023-05-09T14:00:20.692Z,23.23
2023-05-09T14:02:47.523Z,23.11
2023-05-09T14:05:13.862Z,23.01
2023-05-09T14:07:41.833Z,22.91
2023-05-09T14:10:11.897Z,22.80
2023-05-09T14:12:39.855Z,22.69
2023-05-09T14:15:07.596Z,22.58
2023-05-09T14:17:34.003Z,22.45
2023-05-09T14:20:03.466Z,22.30
2023-05-09T14:22:31.806Z,22.17
2023-05-09T14:24:58.048Z,22.03
2023-05-09T14:27:24.409Z,21.90
2023-05-09T14:29:51.110Z,21.78
2023-05-09T14:32:17.548Z,21.68
2023-05-09T14:34:44.897Z,21.58
2023-05-09T14:37:13.953Z,21.46
2023-05-09T14:39:48.722Z,21.34
2023-05-09T14:42:15.942Z,21.22
2023-05-09T14:44:42.442Z,21.10
2023-05-09T14:47:09.188Z,20.98
2023-05-09T14:49:36.705Z,20.87
2023-05-09T14:52:03.070Z,20.78
2023-05-09T14:54:29.511Z,20.70
2023-05-09T14:56:56.577Z,20.62
2023-05-09T14:59:22.892Z,20.53
2023-05-09T15:01:51.053Z,20.43
2023-05-09T15:04:17.434Z,20.35
2023-05-09T15:06:44.730Z,20.27
2023-05-09T15:09:12.091Z,20.20
2023-05-09T15:11:47.769Z,20.11
2023-05-09T15:14:15.736Z,20.01
2023-05-09T15:16:42.280Z,19.94
2023-05-09T15:19:08.732Z,19.90
2023-05-09T15:21:35.258Z,19.84
2023-05-09T15:24:01.707Z,19.78
2023-05-09T15:26:28.155Z,19.72
2023-05-09T15:28:54.428Z,19.68
2023-05-09T15:31:22.503Z,19.63
2023-05-09T15:33:49.290Z,19.58
2023-05-09T15:36:15.739Z,19.52
2023-05-09T15:38:48.439Z,19.46
2023-05-09T15:41:15.302Z,19.41
2023-05-09T15:43:41.643Z,19.35
2023-05-09T15:46:08.134Z,19.30
2023-05-09T15:48:34.531Z,19.27
2023-05-09T15:51:01.995Z,19.22
2023-05-09T15:53:28.686Z,19.15
2023-05-09T15:55:56.104Z,19.11
2023-05-09T15:58:22.817Z,19.06
2023-05-09T16:00:49.397Z,19.00
2023-05-09T16:03:16.050Z,18.96
2023-05-09T16:05:43.051Z,18.92
2023-05-09T16:08:09.353Z,18.89
2023-05-09T16:10:35.894Z,18.85
2023-05-09T16:13:04.342Z,18.80
2023-05-09T16:15:30.716Z,18.76
2023-05-09T16:17:57.179Z,18.70
2023-05-09T16:20:23.492Z,18.66
2023-05-09T16:22:49.925Z,18.60
2023-05-09T16:25:16.476Z,18.55
2023-05-09T16:27:43.245Z,18.50
2023-05-09T16:30:10.273Z,18.46
2023-05-09T16:32:36.787Z,18.41
2023-05-09T16:35:03.456Z,18.38
2023-05-09T16:37:29.767Z,18.32
2023-05-09T16:39:57.164Z,18.29
2023-05-09T16:42:23.537Z,18.24
2023-05-09T16:44:49.968Z,18.18
2023-05-09T16:47:16.226Z,18.14
2023-05-09T16:49:42.535Z,18.08
2023-05-09T16:52:08.853Z,18.03
2023-05-09T16:54:35.164Z,17.97
2023-05-09T16:57:02.482Z,17.91
2023-05-09T16:59:28.772Z,17.86
2023-05-09T17:01:56.904Z,17.80
2023-05-09T17:04:24.515Z,17.76
2023-05-09T17:06:51.155Z,17.70
2023-05-09T17:09:17.993Z,17.66
2023-05-09T17:11:44.264Z,17.61
2023-05-09T17:14:10.552Z,17.57
2023-05-09T17:16:38.117Z,17.50
2023-05-09T17:19:04.725Z,17.45
2023-05-09T17:21:31.604Z,17.40
2023-05-09T17:23:57.880Z,17.35
2023-05-09T17:26:25.067Z,17.30
2023-05-09T17:28:51.306Z,17.26
2023-05-09T17:31:17.638Z,17.21
2023-05-09T17:33:44.165Z,17.15
2023-05-09T17:36:10.474Z,17.09
2023-05-09T17:38:36.752Z,17.02
2023-05-09T17:41:03.641Z,16.96
2023-05-09T17:43:31.173Z,16.91
2023-05-09T17:45:58.193Z,16.85
2023-05-09T17:48:24.543Z,16.81
2023-05-09T17:50:50.800Z,16.76
2023-05-09T17:53:17.631Z,16.71
2023-05-09T17:55:43.946Z,16.66
2023-05-09T17:58:10.324Z,16.60
2023-05-09T18:00:36.885Z,16.56
2023-05-09T18:03:03.333Z,16.49
2023-05-09T18:05:29.858Z,16.44
2023-05-09T18:07:56.804Z,16.39
2023-05-09T18:10:23.028Z,16.34
2023-05-09T18:12:49.291Z,16.28
2023-05-09T18:15:15.664Z,16.23
2023-05-09T18:17:45.390Z,16.18
2023-05-09T18:20:11.841Z,16.12
2023-05-09T18:22:38.137Z,16.06
2023-05-09T18:25:04.868Z,16.02
2023-05-09T18:27:31.159Z,15.97
2023-05-09T18:29:57.498Z,15.91
2023-05-09T18:32:23.839Z,15.86
2023-05-09T18:34:50.248Z,15.80
2023-05-09T18:37:16.930Z,15.74
2023-05-09T18:39:43.258Z,15.68
2023-05-09T18:42:09.640Z,15.61
2023-05-09T18:44:36.688Z,15.55
2023-05-09T18:47:02.996Z,15.50
2023-05-09T18:49:29.325Z,15.44
2023-05-09T18:51:55.791Z,15.37
2023-05-09T18:54:22.157Z,15.31
2023-05-09T18:56:48.877Z,15.24
2023-05-09T18:59:16.431Z,15.17
2023-05-09T19:01:43.365Z,15.11
2023-05-09T19:04:12.304Z,15.05
2023-05-09T19:06:38.907Z,14.98
2023-05-09T19:09:05.366Z,14.93
2023-05-09T19:11:31.752Z,14.86
2023-05-09T19:13:58.194Z,14.80
2023-05-09T19:16:25.837Z,14.73
2023-05-09T19:18:59.075Z,14.66
2023-05-09T19:21:25.280Z,14.58
2023-05-09T19:23:51.705Z,14.51
2023-05-09T19:26:21.003Z,14.43
2023-05-09T19:28:47.446Z,14.37
2023-05-09T19:31:18.021Z,14.29
2023-05-09T19:33:46.763Z,14.21
2023-05-09T19:36:17.143Z,14.14
2023-05-09T19:38:43.517Z,14.07
2023-05-09T19:41:10.348Z,14.00
2023-05-09T19:43:37.212Z,13.92
2023-05-09T19:46:03.652Z,13.84
2023-05-09T19:48:30.116Z,13.77
2023-05-09T19:50:59.887Z,13.70
2023-05-09T19:53:26.292Z,13.63
2023-05-09T19:55:52.720Z,13.56
2023-05-09T19:58:19.273Z,13.50
2023-05-09T20:00:47.392Z,13.43
2023-05-09T20:03:13.983Z,13.36
2023-05-09T20:05:44.518Z,13.28
2023-05-09T20:08:10.722Z,13.20
2023-05-09T20:10:39.574Z,13.14
2023-05-09T20:13:06.068Z,13.08
2023-05-09T20:15:32.643Z,13.01
2023-05-09T20:18:02.850Z,12.93
2023-05-09T20:20:33.142Z,12.86
2023-05-09T20:22:59.468Z,12.80
2023-05-09T20:25:28.991Z,12.74
2023-05-09T20:27:55.425Z,12.69
2023-05-09T20:30:21.732Z,12.62
2023-05-09T20:32:48.044Z,12.55
2023-05-09T20:35:14.500Z,12.49
2023-05-09T20:37:41.326Z,12.43
2023-05-09T20:40:08.507Z,12.38
2023-05-09T20:42:35.031Z,12.33
2023-05-09T20:45:01.532Z,12.28
2023-05-09T20:47:27.869Z,12.23
2023-05-09T20:49:55.801Z,12.18
2023-05-09T20:52:23.026Z,12.15
2023-05-09T20:54:49.237Z,12.12
2023-05-09T20:57:15.559Z,12.10
2023-05-09T20:59:41.872Z,12.06
2023-05-09T21:02:08.166Z,12.05
2023-05-09T21:04:34.500Z,12.02
2023-05-09T21:07:00.976Z,12.01
2023-05-09T21:09:27.283Z,11.99
2023-05-09T21:11:56.435Z,11.97
2023-05-09T21:14:22.666Z,11.94
2023-05-09T21:16:54.154Z,11.92
2023-05-09T21:19:22.059Z,11.89
2023-05-09T21:21:48.277Z,11.87
2023-05-09T21:24:14.745Z,11.84
2023-05-09T21:26:44.198Z,11.81
2023-05-09T21:29:13.584Z,11.79
2023-05-09T21:31:40.061Z,11.75
2023-05-09T21:34:09.212Z,11.74
2023-05-09T21:36:42.399Z,11.70
2023-05-09T21:39:09.674Z,11.67
2023-05-09T21:41:37.823Z,11.64
2023-05-09T21:44:04.758Z,11.61
2023-05-09T21:46:34.207Z,11.57
2023-05-09T21:49:00.689Z,11.54
2023-05-09T21:51:27.721Z,11.50
2023-05-09T21:53:54.202Z,11.47
2023-05-09T21:56:22.167Z,11.43
2023-05-09T21:58:48.406Z,11.40
2023-05-09T22:01:15.931Z,11.36
2023-05-09T22:03:42.322Z,11.32
2023-05-09T22:06:08.627Z,11.30
2023-05-09T22:08:34.863Z,11.27
2023-05-09T22:11:01.078Z,11.24
2023-05-09T22:13:28.029Z,11.22
2023-05-09T22:15:54.815Z,11.19
2023-05-09T22:18:21.230Z,11.16
2023-05-09T22:20:47.544Z,11.13
2023-05-09T22:23:13.891Z,11.11
2023-05-09T22:25:40.289Z,11.10
2023-05-09T22:28:06.573Z,11.08
2023-05-09T22:30:32.800Z,11.04
2023-05-09T22:32:59.377Z,11.02
2023-05-09T22:35:25.815Z,10.99
2023-05-09T22:37:52.058Z,10.95
2023-05-09T22:40:18.353Z,10.92
2023-05-09T22:42:44.593Z,10.90
2023-05-09T22:45:10.878Z,10.85
2023-05-09T22:47:37.506Z,10.82
2023-05-09T22:50:04.126Z,10.78
2023-05-09T22:52:30.923Z,10.75
2023-05-09T22:54:57.262Z,10.71
2023-05-09T22:57:23.566Z,10.68
2023-05-09T22:59:50.412Z,10.65
2023-05-09T23:02:16.750Z,10.62
2023-05-09T23:04:43.116Z,10.59
2023-05-09T23:07:09.443Z,10.55
2023-05-09T23:09:35.767Z,10.53
2023-05-09T23:12:02.795Z,10.49
2023-05-09T23:14:29.079Z,10.47
2023-05-09T23:16:55.953Z,10.44
2023-05-09T23:19:22.401Z,10.42
2023-05-09T23:21:48.715Z,10.37
2023-05-09T23:24:15.041Z,10.35
2023-05-09T23:26:41.361Z,10.31
2023-05-09T23:29:07.628Z,10.28
2023-05-09T23:31:34.036Z,10.24
2023-05-09T23:34:00.361Z,10.21
2023-05-09T23:36:27.453Z,10.18
2023-05-09T23:38:53.721Z,10.14
2023-05-09T23:41:21.222Z,10.11
2023-05-09T23:43:47.651Z,10.08
2023-05-09T23:46:13.917Z,10.05
2023-05-09T23:48:40.831Z,10.02
2023-05-09T23:51:07.121Z,10.00
2023-05-09T23:53:34.357Z,9.98
2023-05-09T23:56:01.611Z,9.94
2023-05-09T23:58:27.895Z,9.91
